Terminal Aerodrome Forecast
Issued by NWS

Home | Current Version | Previous Version | Text Only | Print | Product List | Glossary On
Versions: 1 2 3 4 5 6 7 8 9 10 11 12 13 14 15
000
FTUS43 KEAX 060500
TAFMKC
TAF
KMKC 060522Z 0606/0706 14008KT P6SM SCT040 BKN080
     FM061000 15014G25KT P6SM SCT025 OVC040 WS020/19035KT
      TEMPO 0610/0613 5SM -SHRA SCT015 BKN025
     FM061300 17018G28KT P6SM -SHRA VCTS BKN030CB
     FM062300 17013KT P6SM BKN080=

USA.gov is the U.S. government's official web portal to all federal, state and local government web resources and services.